Time;durP1;ratioP1;P1;durP2;ratioP2;P2;SDS_P1;SDS_P2;PMS_P1;PMS_P2;Temp;Humidity;BMP_temperature;BMP_pressure;BME280_temperature;BME280_humidity;BME280_pressure;Samples;Min_cycle;Max_cycle;Signal;HPM_P1;HPM_P2
2021/06/16 00:02:12;;;;;;;6.53;2.88;;;;;;;;;;7043528;28;20036;-81
2021/06/16 00:05:32;;;;;;;7.32;2.30;;;;;;;;;;7055624;28;20048;-80
2021/06/16 00:08:53;;;;;;;5.57;3.08;;;;;;;;;;7054670;28;20143;-80
2021/06/16 00:12:14;;;;;;;3.55;2.60;;;;;;;;;;7055639;28;20097;-80
2021/06/16 00:15:38;;;;;;;6.15;2.75;;;;;;;;;;7055092;28;20493;-80
2021/06/16 00:18:58;;;;;;;6.05;2.80;;;;;;;;;;7041187;28;20044;-81
2021/06/16 00:22:18;;;;;;;4.72;2.92;;;;;;;;;;7041066;28;20047;-81
2021/06/16 00:25:39;;;;;;;5.68;2.97;;;;;;;;;;7055008;28;20134;-81
2021/06/16 00:28:59;;;;;;;4.32;2.47;;;;;;;;;;7054107;28;20043;-81
2021/06/16 00:32:20;;;;;;;4.35;2.80;;;;;;;;;;7055094;28;20047;-81
2021/06/16 00:35:40;;;;;;;5.78;2.60;;;;;;;;;;7054316;28;20481;-81
2021/06/16 00:39:04;;;;;;;4.95;2.60;;;;;;;;;;7054812;28;20044;-81
2021/06/16 00:42:25;;;;;;;4.80;2.65;;;;;;;;;;7054860;28;20499;-81
2021/06/16 00:45:45;;;;;;;3.95;2.58;;;;;;;;;;7054169;28;20118;-81
2021/06/16 00:49:06;;;;;;;3.95;2.42;;;;;;;;;;7054379;28;20481;-81
2021/06/16 00:52:27;;;;;;;3.35;2.30;;;;;;;;;;7054866;28;20051;-80
2021/06/16 00:55:47;;;;;;;5.65;2.58;;;;;;;;;;7053664;28;20142;-81
2021/06/16 00:59:08;;;;;;;5.85;3.20;;;;;;;;;;7049586;28;20087;-81
2021/06/16 01:02:33;;;;;;;8.90;3.78;;;;;;;;;;7029213;28;20043;-81
2021/06/16 01:05:59;;;;;;;7.82;3.30;;;;;;;;;;7053468;28;20047;-80
2021/06/16 01:09:25;;;;;;;3.38;2.45;;;;;;;;;;7036210;28;20043;-80
2021/06/16 01:13:19;;;;;;;3.40;2.65;;;;;;;;;;7054142;28;20051;-80
2021/06/16 01:16:43;;;;;;;8.40;2.80;;;;;;;;;;7053069;28;20047;-80
2021/06/16 01:20:37;;;;;;;5.82;2.88;;;;;;;;;;7034739;28;20079;-80
2021/06/16 01:24:05;;;;;;;4.80;2.83;;;;;;;;;;6981848;28;20055;-81
2021/06/16 01:27:26;;;;;;;4.60;2.57;;;;;;;;;;7064975;22;20048;-80
2021/06/16 01:30:47;;;;;;;7.47;3.28;;;;;;;;;;7053546;28;20035;-79
2021/06/16 01:34:09;;;;;;;4.03;2.80;;;;;;;;;;7038885;28;20048;-79
2021/06/16 01:37:30;;;;;;;5.25;2.92;;;;;;;;;;7052798;28;20062;-81
2021/06/16 01:40:53;;;;;;;3.90;2.60;;;;;;;;;;7053473;28;20075;-79
2021/06/16 01:44:14;;;;;;;5.57;2.50;;;;;;;;;;7035017;28;20113;-79
2021/06/16 01:47:35;;;;;;;5.13;2.60;;;;;;;;;;7053023;28;20051;-78
2021/06/16 01:50:56;;;;;;;2.78;2.30;;;;;;;;;;7006404;28;20084;-79
2021/06/16 01:54:17;;;;;;;3.80;2.88;;;;;;;;;;7033234;28;20052;-79
2021/06/16 01:57:38;;;;;;;3.80;2.30;;;;;;;;;;7031134;28;20048;-79
2021/06/16 02:00:59;;;;;;;4.55;2.45;;;;;;;;;;7034553;28;20052;-79
2021/06/16 02:04:20;;;;;;;4.25;2.75;;;;;;;;;;7033170;28;20055;-79
2021/06/16 02:07:42;;;;;;;3.92;2.70;;;;;;;;;;7051482;28;20040;-80
2021/06/16 02:11:04;;;;;;;5.75;3.15;;;;;;;;;;7048781;28;20492;-79
2021/06/16 02:14:24;;;;;;;5.00;2.22;;;;;;;;;;7050895;28;20052;-80
2021/06/16 02:17:49;;;;;;;5.25;2.75;;;;;;;;;;7029698;28;20043;-79
2021/06/16 02:21:10;;;;;;;5.55;2.88;;;;;;;;;;7033151;28;20062;-79
2021/06/16 02:24:31;;;;;;;5.35;2.88;;;;;;;;;;7050686;28;20367;-78
2021/06/16 02:27:51;;;;;;;4.38;2.63;;;;;;;;;;7015468;28;20499;-79
2021/06/16 02:31:12;;;;;;;5.38;2.35;;;;;;;;;;7052463;28;20044;-79
2021/06/16 02:34:32;;;;;;;3.92;2.53;;;;;;;;;;7052618;28;20130;-79
2021/06/16 02:38:05;;;;;;;4.05;2.58;;;;;;;;;;7044624;28;20060;-79
2021/06/16 02:41:25;;;;;;;4.32;2.65;;;;;;;;;;7025281;28;20138;-80
2021/06/16 02:44:48;;;;;;;2.45;2.25;;;;;;;;;;7052354;28;20040;-79
2021/06/16 02:48:09;;;;;;;3.92;2.72;;;;;;;;;;7042082;28;20051;-79
2021/06/16 02:51:30;;;;;;;4.15;2.70;;;;;;;;;;7028673;28;20040;-79
2021/06/16 02:54:57;;;;;;;4.93;2.63;;;;;;;;;;7033598;28;20076;-79
2021/06/16 02:58:18;;;;;;;4.80;2.85;;;;;;;;;;7033656;28;20043;-79
2021/06/16 03:01:39;;;;;;;5.35;2.78;;;;;;;;;;7021888;28;20046;-79
2021/06/16 03:04:59;;;;;;;3.92;2.83;;;;;;;;;;7029772;28;20043;-79
2021/06/16 03:08:22;;;;;;;4.57;2.58;;;;;;;;;;7025261;28;20047;-79
2021/06/16 03:11:42;;;;;;;4.88;2.78;;;;;;;;;;7046773;28;20059;-80
2021/06/16 03:15:04;;;;;;;5.63;3.10;;;;;;;;;;7038618;28;20047;-79
2021/06/16 03:18:26;;;;;;;5.35;2.38;;;;;;;;;;7055287;28;20086;-80
2021/06/16 03:21:48;;;;;;;4.22;2.95;;;;;;;;;;7045898;28;20043;-79
2021/06/16 03:25:09;;;;;;;2.70;2.40;;;;;;;;;;7056593;28;20046;-80
2021/06/16 03:28:31;;;;;;;4.93;2.85;;;;;;;;;;7036350;28;20050;-78
2021/06/16 03:31:52;;;;;;;4.82;2.92;;;;;;;;;;7025268;28;20040;-80
2021/06/16 03:35:13;;;;;;;4.57;2.53;;;;;;;;;;7021192;28;20109;-79
2021/06/16 03:38:37;;;;;;;4.18;2.95;;;;;;;;;;7054349;28;20051;-80
2021/06/16 03:41:58;;;;;;;6.22;3.13;;;;;;;;;;7053482;28;20485;-79
2021/06/16 03:45:19;;;;;;;4.00;2.75;;;;;;;;;;7037682;28;20373;-80
2021/06/16 03:48:40;;;;;;;4.80;3.40;;;;;;;;;;7035083;28;20481;-79
2021/06/16 03:52:01;;;;;;;3.50;2.83;;;;;;;;;;7028760;28;20056;-79
2021/06/16 03:55:22;;;;;;;4.93;3.00;;;;;;;;;;7051579;28;20039;-79
2021/06/16 03:58:43;;;;;;;4.55;3.00;;;;;;;;;;7052732;28;20159;-79
2021/06/16 04:02:04;;;;;;;3.95;2.50;;;;;;;;;;7032047;28;20047;-79
2021/06/16 04:05:24;;;;;;;5.20;3.17;;;;;;;;;;7036556;28;20173;-79
2021/06/16 04:08:45;;;;;;;4.43;2.92;;;;;;;;;;7052740;28;20039;-79
2021/06/16 04:12:06;;;;;;;7.30;2.65;;;;;;;;;;7023515;28;20134;-79
2021/06/16 04:15:27;;;;;;;4.68;2.67;;;;;;;;;;7047191;27;20071;-79
2021/06/16 04:18:47;;;;;;;3.10;2.65;;;;;;;;;;7052571;28;20101;-79
2021/06/16 04:22:07;;;;;;;4.65;2.78;;;;;;;;;;7046402;28;20130;-80
2021/06/16 04:25:28;;;;;;;3.38;2.78;;;;;;;;;;7055362;28;20396;-79
2021/06/16 04:28:48;;;;;;;5.38;3.35;;;;;;;;;;7052237;28;20044;-80
2021/06/16 04:32:10;;;;;;;4.72;3.10;;;;;;;;;;7045302;28;20050;-80
2021/06/16 04:35:30;;;;;;;5.82;3.05;;;;;;;;;;7055055;28;20089;-79
2021/06/16 04:38:50;;;;;;;5.47;3.60;;;;;;;;;;7051879;28;20154;-78
2021/06/16 04:42:11;;;;;;;7.90;3.20;;;;;;;;;;7054261;28;20082;-79
2021/06/16 04:45:31;;;;;;;6.05;3.80;;;;;;;;;;7054925;28;20397;-79
2021/06/16 04:48:52;;;;;;;5.25;3.60;;;;;;;;;;7042015;28;20056;-80
2021/06/16 04:52:12;;;;;;;7.18;4.18;;;;;;;;;;7052773;28;20107;-80
2021/06/16 04:55:33;;;;;;;7.57;3.20;;;;;;;;;;7054336;28;20473;-78
2021/06/16 04:58:53;;;;;;;6.35;3.75;;;;;;;;;;7051057;28;20135;-79
2021/06/16 05:02:14;;;;;;;5.88;3.40;;;;;;;;;;7051968;28;20474;-79
2021/06/16 05:05:34;;;;;;;3.00;2.70;;;;;;;;;;7050304;28;20044;-79
2021/06/16 05:08:55;;;;;;;7.55;3.30;;;;;;;;;;7041030;28;20097;-80
2021/06/16 05:12:15;;;;;;;4.15;2.88;;;;;;;;;;7051062;28;20079;-80
2021/06/16 05:15:35;;;;;;;7.82;3.40;;;;;;;;;;7053958;28;20047;-80
2021/06/16 05:18:57;;;;;;;3.67;3.00;;;;;;;;;;7048308;28;20134;-80
2021/06/16 05:22:18;;;;;;;5.97;3.28;;;;;;;;;;7053655;28;20568;-80
2021/06/16 05:25:41;;;;;;;5.82;3.42;;;;;;;;;;7052477;28;20049;-83
2021/06/16 05:29:01;;;;;;;10.95;3.35;;;;;;;;;;7036125;28;20409;-82
2021/06/16 05:32:22;;;;;;;21.83;6.35;;;;;;;;;;7046562;28;20482;-81
2021/06/16 05:35:42;;;;;;;20.20;7.07;;;;;;;;;;7046213;28;20100;-82
2021/06/16 05:39:04;;;;;;;29.75;6.95;;;;;;;;;;7048976;28;20115;-81
2021/06/16 05:42:25;;;;;;;23.92;6.65;;;;;;;;;;7053708;28;20071;-81
2021/06/16 05:45:45;;;;;;;15.13;6.45;;;;;;;;;;7047227;28;20051;-82
2021/06/16 05:49:05;;;;;;;17.23;6.65;;;;;;;;;;7037011;28;20059;-82
2021/06/16 05:52:26;;;;;;;14.73;6.82;;;;;;;;;;7052502;28;20043;-82
2021/06/16 05:55:46;;;;;;;13.20;7.25;;;;;;;;;;7016145;28;20358;-83
2021/06/16 05:59:07;;;;;;;15.32;6.88;;;;;;;;;;7036810;28;20039;-83
2021/06/16 06:02:27;;;;;;;14.82;6.85;;;;;;;;;;7037232;28;20105;-81
2021/06/16 06:05:48;;;;;;;16.52;6.55;;;;;;;;;;7030485;28;20043;-85
2021/06/16 06:09:10;;;;;;;14.65;6.00;;;;;;;;;;7037883;28;20385;-84
2021/06/16 06:12:31;;;;;;;18.98;7.40;;;;;;;;;;7051614;28;20032;-85
2021/06/16 06:15:51;;;;;;;14.55;5.75;;;;;;;;;;7036146;28;20185;-85
2021/06/16 06:19:12;;;;;;;16.10;5.22;;;;;;;;;;7042578;28;20051;-84
2021/06/16 06:22:32;;;;;;;12.07;5.22;;;;;;;;;;7052692;28;20088;-82
2021/06/16 06:25:52;;;;;;;10.38;4.47;;;;;;;;;;7032527;28;20048;-84
2021/06/16 06:29:13;;;;;;;10.68;4.35;;;;;;;;;;7042100;28;20128;-83
2021/06/16 06:32:33;;;;;;;8.98;4.10;;;;;;;;;;7051953;28;20051;-84
2021/06/16 06:35:54;;;;;;;8.93;4.30;;;;;;;;;;7031403;28;20142;-83
2021/06/16 06:39:15;;;;;;;12.10;4.30;;;;;;;;;;7050908;28;20127;-84
2021/06/16 06:42:36;;;;;;;10.10;4.28;;;;;;;;;;7048139;28;20495;-83
2021/06/16 06:45:56;;;;;;;7.88;3.95;;;;;;;;;;7037625;28;20059;-83
2021/06/16 06:49:17;;;;;;;13.48;4.53;;;;;;;;;;7044047;28;20052;-85
2021/06/16 06:52:38;;;;;;;12.77;4.18;;;;;;;;;;7045274;28;20122;-83
2021/06/16 06:55:58;;;;;;;7.78;3.83;;;;;;;;;;7033133;28;20052;-86
2021/06/16 06:59:19;;;;;;;13.55;4.13;;;;;;;;;;7032958;28;20433;-84
2021/06/16 07:02:42;;;;;;;6.50;4.00;;;;;;;;;;7044026;28;20048;-83
2021/06/16 07:06:03;;;;;;;16.25;4.57;;;;;;;;;;7019918;28;20055;-82
2021/06/16 07:09:24;;;;;;;10.05;4.35;;;;;;;;;;7040413;28;20044;-83
2021/06/16 07:12:45;;;;;;;9.75;4.07;;;;;;;;;;7046063;28;20396;-82
2021/06/16 07:16:05;;;;;;;8.43;3.95;;;;;;;;;;7044150;28;20594;-83
2021/06/16 07:19:26;;;;;;;10.30;4.03;;;;;;;;;;7046148;28;20442;-83
2021/06/16 07:22:48;;;;;;;10.15;4.30;;;;;;;;;;7045411;28;20047;-83
2021/06/16 07:26:08;;;;;;;7.40;3.75;;;;;;;;;;7042016;28;20063;-82
2021/06/16 07:29:29;;;;;;;7.70;3.30;;;;;;;;;;7049856;28;20048;-81
2021/06/16 07:32:53;;;;;;;14.15;3.72;;;;;;;;;;7042083;28;20507;-82
2021/06/16 07:36:14;;;;;;;9.48;3.63;;;;;;;;;;7033316;28;20532;-83
2021/06/16 07:39:34;;;;;;;6.40;3.78;;;;;;;;;;7038307;28;20056;-82
2021/06/16 07:42:54;;;;;;;6.47;3.75;;;;;;;;;;7050331;28;20415;-84
2021/06/16 07:46:15;;;;;;;11.00;4.25;;;;;;;;;;7038897;28;20192;-82
2021/06/16 07:49:35;;;;;;;8.90;3.70;;;;;;;;;;7051724;28;20130;-83
2021/06/16 07:52:56;;;;;;;7.65;3.72;;;;;;;;;;7035909;28;20040;-82
2021/06/16 07:56:18;;;;;;;6.78;3.70;;;;;;;;;;7050306;28;20075;-83
2021/06/16 07:59:38;;;;;;;10.60;3.85;;;;;;;;;;7042590;28;20040;-81
2021/06/16 08:02:59;;;;;;;9.80;4.47;;;;;;;;;;7032867;28;20447;-82
2021/06/16 08:06:21;;;;;;;6.20;3.45;;;;;;;;;;7048059;28;20134;-81
2021/06/16 08:09:42;;;;;;;9.73;3.72;;;;;;;;;;7039443;28;20134;-82
2021/06/16 08:13:03;;;;;;;6.60;3.55;;;;;;;;;;7044311;28;20059;-81
2021/06/16 08:16:24;;;;;;;6.90;3.92;;;;;;;;;;7025445;28;20044;-82
2021/06/16 08:19:44;;;;;;;8.45;3.92;;;;;;;;;;7043369;28;20151;-84
2021/06/16 08:23:07;;;;;;;5.95;3.50;;;;;;;;;;7043829;28;20090;-84
2021/06/16 08:26:27;;;;;;;11.63;3.75;;;;;;;;;;7037884;28;20079;-83
2021/06/16 08:29:48;;;;;;;8.43;3.85;;;;;;;;;;7046114;28;20051;-86
2021/06/16 08:33:09;;;;;;;8.80;3.47;;;;;;;;;;7034833;28;20480;-84
2021/06/16 08:36:29;;;;;;;14.02;4.45;;;;;;;;;;7042380;28;20051;-84
2021/06/16 08:39:50;;;;;;;10.23;3.97;;;;;;;;;;7046277;28;20126;-84
2021/06/16 08:43:11;;;;;;;12.65;4.18;;;;;;;;;;7042984;28;20075;-84
2021/06/16 08:46:32;;;;;;;10.55;3.88;;;;;;;;;;7034620;28;20066;-83
2021/06/16 08:49:54;;;;;;;9.50;4.00;;;;;;;;;;7053495;28;20055;-86
2021/06/16 08:53:15;;;;;;;8.27;4.20;;;;;;;;;;7052833;28;20489;-83
2021/06/16 08:56:36;;;;;;;9.20;4.32;;;;;;;;;;7052098;28;20135;-84
2021/06/16 08:59:56;;;;;;;12.70;3.50;;;;;;;;;;7052029;28;20040;-84
2021/06/16 09:03:16;;;;;;;6.63;3.65;;;;;;;;;;7051137;28;20172;-85
2021/06/16 09:06:37;;;;;;;10.23;3.90;;;;;;;;;;7040294;28;20044;-84
2021/06/16 09:10:15;;;;;;;6.85;3.90;;;;;;;;;;7046991;28;20101;-85
2021/06/16 09:13:36;;;;;;;6.85;3.80;;;;;;;;;;7029470;28;20054;-83
2021/06/16 09:17:01;;;;;;;11.23;4.07;;;;;;;;;;7041398;28;20040;-83
2021/06/16 09:20:24;;;;;;;11.43;4.10;;;;;;;;;;7038550;28;20040;-83
2021/06/16 09:23:44;;;;;;;8.93;4.10;;;;;;;;;;7044306;28;20477;-84
2021/06/16 09:27:05;;;;;;;7.90;3.60;;;;;;;;;;7048748;28;20096;-84
2021/06/16 09:30:25;;;;;;;9.98;4.25;;;;;;;;;;7040431;28;20141;-83
2021/06/16 09:33:47;;;;;;;5.82;4.15;;;;;;;;;;7036587;28;20052;-83
2021/06/16 09:37:07;;;;;;;8.38;4.53;;;;;;;;;;7039042;28;20078;-83
2021/06/16 09:40:33;;;;;;;6.80;5.10;;;;;;;;;;7036642;28;20048;-83
2021/06/16 09:43:55;;;;;;;10.23;4.72;;;;;;;;;;7030923;28;20044;-84
2021/06/16 09:47:23;;;;;;;7.00;4.78;;;;;;;;;;7046864;28;20050;-83
2021/06/16 09:50:43;;;;;;;12.90;5.30;;;;;;;;;;7032726;28;20056;-83
2021/06/16 09:54:11;;;;;;;9.27;4.28;;;;;;;;;;7051515;28;20813;-83
2021/06/16 09:57:33;;;;;;;11.20;4.83;;;;;;;;;;7048183;28;20058;-84
2021/06/16 10:00:55;;;;;;;10.20;4.63;;;;;;;;;;7053069;28;20077;-83
2021/06/16 10:04:43;;;;;;;8.40;4.63;;;;;;;;;;7039365;28;20047;-86
2021/06/16 10:08:04;;;;;;;;;;;;;;;;;;7045345;28;20136;-84
2021/06/16 10:11:28;;;;;;;11.15;4.00;;;;;;;;;;7018041;28;19916;-82
2021/06/16 10:14:49;;;;;;;8.35;4.65;;;;;;;;;;7052903;28;20048;-83
2021/06/16 10:18:09;;;;;;;10.02;4.55;;;;;;;;;;7050078;28;20051;-82
2021/06/16 10:21:30;;;;;;;6.75;4.32;;;;;;;;;;7052735;28;20385;-82
2021/06/16 10:24:51;;;;;;;6.57;3.80;;;;;;;;;;7031426;28;20048;-83
2021/06/16 10:28:16;;;;;;;9.38;4.60;;;;;;;;;;7050662;28;20051;-84
2021/06/16 10:31:39;;;;;;;10.77;4.45;;;;;;;;;;7043879;28;20081;-83
2021/06/16 10:35:03;;;;;;;7.82;4.30;;;;;;;;;;7038613;28;20077;-83
2021/06/16 10:38:24;;;;;;;8.40;4.35;;;;;;;;;;7052359;28;20051;-83
2021/06/16 10:41:46;;;;;;;6.97;3.40;;;;;;;;;;7032669;28;20120;-83
2021/06/16 10:45:18;;;;;;;6.60;4.32;;;;;;;;;;7028385;28;20048;-82
2021/06/16 10:48:51;;;;;;;9.30;4.53;;;;;;;;;;7029962;28;20079;-80
2021/06/16 10:52:14;;;;;;;7.07;4.32;;;;;;;;;;7039705;28;20146;-81
2021/06/16 10:55:55;;;;;;;8.73;3.75;;;;;;;;;;7049135;28;20473;-80
2021/06/16 10:59:42;;;;;;;9.05;4.30;;;;;;;;;;7049733;28;20048;-81
2021/06/16 11:03:02;;;;;;;9.10;4.03;;;;;;;;;;7041190;28;20059;-82
2021/06/16 11:11:03;;;;;;;7.88;4.07;;;;;;;;;;7052273;28;20043;-83
2021/06/16 11:14:32;;;;;;;7.70;3.63;;;;;;;;;;7014026;28;20055;-81
2021/06/16 11:17:53;;;;;;;13.68;4.80;;;;;;;;;;7044922;28;20055;-82
2021/06/16 11:21:17;;;;;;;9.68;4.65;;;;;;;;;;7046547;28;20047;-82
2021/06/16 11:25:05;;;;;;;11.95;4.38;;;;;;;;;;7055202;28;20101;-82
2021/06/16 11:28:36;;;;;;;6.32;4.63;;;;;;;;;;7056581;28;20055;-82
2021/06/16 11:32:11;;;;;;;12.00;4.72;;;;;;;;;;7055959;28;20058;-81
2021/06/16 11:35:38;;;;;;;9.75;4.55;;;;;;;;;;7056648;28;20043;-82
2021/06/16 11:39:06;;;;;;;10.27;5.30;;;;;;;;;;7050940;28;20370;-81
2021/06/16 11:42:27;;;;;;;9.35;4.65;;;;;;;;;;7051366;28;20032;-81
2021/06/16 11:45:48;;;;;;;8.48;4.90;;;;;;;;;;7020543;28;20483;-80
2021/06/16 11:49:12;;;;;;;6.47;4.38;;;;;;;;;;7046971;28;20496;-80
2021/06/16 11:52:33;;;;;;;7.28;4.47;;;;;;;;;;7042814;28;20143;-80
2021/06/16 11:55:53;;;;;;;5.97;4.30;;;;;;;;;;7050863;28;20701;-80
2021/06/16 11:59:14;;;;;;;5.90;4.20;;;;;;;;;;7029999;28;20066;-80
2021/06/16 12:02:35;;;;;;;7.13;4.10;;;;;;;;;;7030199;28;20032;-80
2021/06/16 12:06:04;;;;;;;6.22;4.20;;;;;;;;;;7049353;28;20131;-80
2021/06/16 12:09:24;;;;;;;6.90;4.35;;;;;;;;;;7053437;28;20128;-80
2021/06/16 12:12:54;;;;;;;10.52;4.32;;;;;;;;;;7054578;28;20039;-80
2021/06/16 12:16:24;;;;;;;6.38;4.25;;;;;;;;;;7038807;28;20074;-80
2021/06/16 12:19:45;;;;;;;9.40;4.18;;;;;;;;;;7037838;28;20239;-80
2021/06/16 12:23:17;;;;;;;5.13;3.92;;;;;;;;;;7050152;28;20069;-79
2021/06/16 12:26:39;;;;;;;8.18;4.30;;;;;;;;;;7049240;28;20051;-78
2021/06/16 12:30:01;;;;;;;8.40;4.32;;;;;;;;;;7053813;28;20048;-80
2021/06/16 12:33:36;;;;;;;7.70;3.88;;;;;;;;;;7019167;28;20044;-81
2021/06/16 12:37:23;;;;;;;7.10;4.10;;;;;;;;;;7032440;28;20365;-81
2021/06/16 12:40:44;;;;;;;4.38;3.58;;;;;;;;;;7042604;28;20040;-80
2021/06/16 12:44:12;;;;;;;6.47;4.03;;;;;;;;;;7016254;28;20059;-81
2021/06/16 12:47:33;;;;;;;6.45;3.63;;;;;;;;;;7053480;28;20043;-80
2021/06/16 12:50:57;;;;;;;8.35;3.80;;;;;;;;;;7054172;28;20132;-81
2021/06/16 12:54:38;;;;;;;6.97;3.92;;;;;;;;;;7054220;28;20052;-80
2021/06/16 12:58:01;;;;;;;7.97;3.95;;;;;;;;;;7048436;28;20051;-81
2021/06/16 13:01:22;;;;;;;7.30;3.92;;;;;;;;;;7048211;28;20501;-80
2021/06/16 13:04:46;;;;;;;4.43;3.58;;;;;;;;;;7047778;28;20050;-81
2021/06/16 13:08:07;;;;;;;5.70;3.53;;;;;;;;;;7047898;28;20043;-81
2021/06/16 13:11:32;;;;;;;7.40;3.60;;;;;;;;;;7047415;28;20042;-81
2021/06/16 13:14:59;;;;;;;8.45;3.63;;;;;;;;;;7047565;28;20040;-81
2021/06/16 13:18:20;;;;;;;6.40;3.70;;;;;;;;;;7031883;28;20059;-80
2021/06/16 13:21:59;;;;;;;10.57;4.00;;;;;;;;;;7054199;28;20047;-80
2021/06/16 13:25:27;;;;;;;6.18;3.47;;;;;;;;;;7058535;22;20561;-81
2021/06/16 13:29:17;;;;;;;6.68;3.78;;;;;;;;;;6981160;28;20053;-80
2021/06/16 13:32:41;;;;;;;8.30;3.55;;;;;;;;;;6979422;28;20394;-82
2021/06/16 13:36:02;;;;;;;5.75;3.60;;;;;;;;;;6996349;28;20048;-80
2021/06/16 13:39:22;;;;;;;6.32;3.58;;;;;;;;;;6997912;28;20103;-80
2021/06/16 13:42:50;;;;;;;6.78;3.60;;;;;;;;;;6997575;28;20044;-80
2021/06/16 13:46:12;;;;;;;5.73;3.60;;;;;;;;;;6998397;28;20405;-80
2021/06/16 13:49:32;;;;;;;3.92;3.50;;;;;;;;;;6997916;28;20473;-80
2021/06/16 13:52:53;;;;;;;5.32;3.80;;;;;;;;;;7012199;28;20406;-80
2021/06/16 13:56:13;;;;;;;4.15;3.17;;;;;;;;;;6997470;28;20040;-81
2021/06/16 13:59:34;;;;;;;4.45;3.42;;;;;;;;;;6997722;28;20064;-81
2021/06/16 14:02:54;;;;;;;6.70;2.95;;;;;;;;;;6997071;28;20053;-81
2021/06/16 14:06:15;;;;;;;5.65;3.70;;;;;;;;;;6997428;28;20136;-81
2021/06/16 14:09:35;;;;;;;9.55;3.35;;;;;;;;;;6997110;28;20055;-80
2021/06/16 14:12:56;;;;;;;5.28;3.63;;;;;;;;;;6996650;28;20354;-80
2021/06/16 14:16:16;;;;;;;8.85;3.55;;;;;;;;;;7003789;28;20052;-81
2021/06/16 14:19:37;;;;;;;5.10;3.45;;;;;;;;;;7017975;28;20063;-80
2021/06/16 14:23:00;;;;;;;5.22;3.03;;;;;;;;;;7003441;28;20055;-81
2021/06/16 14:26:20;;;;;;;5.85;3.30;;;;;;;;;;7023091;28;20059;-80
2021/06/16 14:29:41;;;;;;;10.75;3.47;;;;;;;;;;7012830;28;20110;-81
2021/06/16 14:33:03;;;;;;;4.63;3.35;;;;;;;;;;7020910;28;20062;-80
2021/06/16 14:36:24;;;;;;;4.68;3.40;;;;;;;;;;7023462;28;20501;-80
2021/06/16 14:39:44;;;;;;;5.43;3.50;;;;;;;;;;7023578;28;20079;-80
2021/06/16 14:43:05;;;;;;;4.57;3.33;;;;;;;;;;7022796;28;20048;-79
2021/06/16 14:46:25;;;;;;;6.30;3.70;;;;;;;;;;7021144;28;20139;-79
2021/06/16 14:49:49;;;;;;;4.45;3.38;;;;;;;;;;7022080;28;20040;-79
2021/06/16 14:53:10;;;;;;;5.20;3.50;;;;;;;;;;7014676;28;20050;-80
2021/06/16 14:56:30;;;;;;;6.18;3.40;;;;;;;;;;7017690;28;20044;-80
2021/06/16 14:59:51;;;;;;;3.70;3.10;;;;;;;;;;7020855;28;20090;-80
2021/06/16 15:03:12;;;;;;;4.13;3.38;;;;;;;;;;7020000;28;20391;-80
2021/06/16 15:06:33;;;;;;;4.63;3.30;;;;;;;;;;7019170;28;20048;-80
2021/06/16 15:09:53;;;;;;;3.40;3.10;;;;;;;;;;7018960;28;20036;-81
2021/06/16 15:13:14;;;;;;;5.57;3.63;;;;;;;;;;7022529;28;20420;-81
2021/06/16 15:16:34;;;;;;;5.15;3.50;;;;;;;;;;7022724;28;20131;-80
2021/06/16 15:19:55;;;;;;;5.13;3.05;;;;;;;;;;7011857;28;20534;-80
2021/06/16 15:23:15;;;;;;;4.47;3.67;;;;;;;;;;7007192;28;20127;-80
2021/06/16 15:26:36;;;;;;;4.38;3.20;;;;;;;;;;7013678;28;20055;-80
2021/06/16 15:29:57;;;;;;;4.10;3.05;;;;;;;;;;7019533;28;20040;-80
2021/06/16 15:33:20;;;;;;;3.40;3.05;;;;;;;;;;7011875;28;20045;-80
2021/06/16 15:36:40;;;;;;;3.92;3.20;;;;;;;;;;6998301;28;20105;-80
2021/06/16 15:40:02;;;;;;;5.30;3.30;;;;;;;;;;7014539;28;20044;-80
2021/06/16 15:43:22;;;;;;;3.97;2.85;;;;;;;;;;7007965;28;20054;-80
2021/06/16 15:46:43;;;;;;;3.75;3.00;;;;;;;;;;7016700;28;20378;-80
2021/06/16 15:50:05;;;;;;;3.95;3.25;;;;;;;;;;7000407;28;20132;-80
2021/06/16 15:53:26;;;;;;;5.82;3.38;;;;;;;;;;7008672;28;20409;-80
2021/06/16 15:56:47;;;;;;;4.55;3.65;;;;;;;;;;6994858;28;20579;-79
2021/06/16 16:00:08;;;;;;;6.60;3.10;;;;;;;;;;6998687;28;20046;-80
2021/06/16 16:03:29;;;;;;;3.67;3.00;;;;;;;;;;7021444;28;20127;-81
2021/06/16 16:06:49;;;;;;;3.83;3.13;;;;;;;;;;7021534;28;20056;-80
2021/06/16 16:10:11;;;;;;;5.18;3.50;;;;;;;;;;7023045;28;20044;-80
2021/06/16 16:13:31;;;;;;;5.40;3.05;;;;;;;;;;7026044;28;20048;-80
2021/06/16 16:16:52;;;;;;;7.85;3.20;;;;;;;;;;7026873;28;20048;-80
2021/06/16 16:20:16;;;;;;;4.07;2.80;;;;;;;;;;7020523;28;20493;-80
2021/06/16 16:23:38;;;;;;;3.22;2.90;;;;;;;;;;7024816;28;20044;-81
2021/06/16 16:26:59;;;;;;;4.43;3.20;;;;;;;;;;7026038;28;20043;-81
2021/06/16 16:30:19;;;;;;;5.70;3.33;;;;;;;;;;7025670;28;20048;-81
2021/06/16 16:33:40;;;;;;;8.73;3.40;;;;;;;;;;7025742;28;20052;-80
2021/06/16 16:37:00;;;;;;;4.28;3.10;;;;;;;;;;7025923;28;20258;-80
2021/06/16 16:40:21;;;;;;;7.45;3.17;;;;;;;;;;7025911;28;20051;-81
2021/06/16 16:43:43;;;;;;;8.88;3.10;;;;;;;;;;7024319;28;20086;-81
2021/06/16 16:47:03;;;;;;;5.88;3.10;;;;;;;;;;7024525;28;20043;-80
2021/06/16 16:50:24;;;;;;;4.30;3.00;;;;;;;;;;7026009;28;20127;-80
2021/06/16 16:53:46;;;;;;;5.85;3.00;;;;;;;;;;7024551;28;20127;-80
2021/06/16 16:57:07;;;;;;;7.28;3.28;;;;;;;;;;7015615;28;20067;-80
2021/06/16 17:00:27;;;;;;;3.40;2.95;;;;;;;;;;7017084;28;20040;-80
2021/06/16 17:03:48;;;;;;;3.67;2.85;;;;;;;;;;7024114;28;20047;-80
2021/06/16 17:07:08;;;;;;;4.80;2.95;;;;;;;;;;7025070;28;20138;-80
2021/06/16 17:10:29;;;;;;;5.32;3.30;;;;;;;;;;7024578;28;20119;-80
2021/06/16 17:13:50;;;;;;;3.45;2.72;;;;;;;;;;7024111;28;20078;-78
2021/06/16 17:17:11;;;;;;;4.40;3.00;;;;;;;;;;7025181;28;20044;-79
2021/06/16 17:20:31;;;;;;;6.13;3.35;;;;;;;;;;7000150;28;20056;-80
2021/06/16 17:23:52;;;;;;;4.28;3.00;;;;;;;;;;7006463;28;20052;-79
2021/06/16 17:27:12;;;;;;;5.32;4.00;;;;;;;;;;6997754;28;20056;-79
2021/06/16 17:30:33;;;;;;;4.78;2.92;;;;;;;;;;7005479;28;20044;-82
2021/06/16 17:33:53;;;;;;;8.05;3.95;;;;;;;;;;6997195;28;20052;-85
2021/06/16 17:37:14;;;;;;;7.55;4.20;;;;;;;;;;6997118;28;20044;-84
2021/06/16 17:40:34;;;;;;;12.02;5.15;;;;;;;;;;7011462;28;20051;-84
2021/06/16 17:43:55;;;;;;;14.20;5.40;;;;;;;;;;6997086;28;20052;-84
2021/06/16 17:47:15;;;;;;;6.90;4.57;;;;;;;;;;6996758;28;20049;-83
2021/06/16 17:50:39;;;;;;;20.90;4.70;;;;;;;;;;6997269;28;20486;-85
2021/06/16 17:53:59;;;;;;;7.75;4.18;;;;;;;;;;6997160;28;20202;-84
2021/06/16 17:57:19;;;;;;;10.15;4.70;;;;;;;;;;6997058;28;20060;-84
2021/06/16 18:00:40;;;;;;;10.85;5.00;;;;;;;;;;6996006;28;20127;-84
2021/06/16 18:04:00;;;;;;;7.55;4.78;;;;;;;;;;7015621;28;20102;-80
2021/06/16 18:07:21;;;;;;;9.13;4.32;;;;;;;;;;7017927;28;20048;-80
2021/06/16 18:10:41;;;;;;;12.48;4.63;;;;;;;;;;7022497;28;20553;-80
2021/06/16 18:14:02;;;;;;;9.45;4.50;;;;;;;;;;7010798;28;20383;-80
2021/06/16 18:17:23;;;;;;;7.57;4.15;;;;;;;;;;7018375;28;20040;-80
2021/06/16 18:20:44;;;;;;;7.55;4.53;;;;;;;;;;7007020;28;20135;-81
2021/06/16 18:24:05;;;;;;;6.65;4.70;;;;;;;;;;6996548;28;20076;-79
2021/06/16 18:27:27;;;;;;;16.75;4.13;;;;;;;;;;7016756;28;20063;-81
2021/06/16 18:30:47;;;;;;;11.85;4.90;;;;;;;;;;7010835;28;20059;-81
2021/06/16 18:34:08;;;;;;;9.07;4.13;;;;;;;;;;6998109;28;20048;-81
2021/06/16 18:37:28;;;;;;;15.50;4.65;;;;;;;;;;6996298;28;20060;-80
2021/06/16 18:40:49;;;;;;;7.88;3.80;;;;;;;;;;6996358;28;20055;-80
2021/06/16 18:44:10;;;;;;;13.23;3.90;;;;;;;;;;6996176;28;20059;-81
2021/06/16 18:47:30;;;;;;;13.27;4.45;;;;;;;;;;7002033;28;20052;-80
2021/06/16 18:50:51;;;;;;;8.02;4.18;;;;;;;;;;6997556;28;20052;-80
2021/06/16 18:54:24;;;;;;;6.78;3.90;;;;;;;;;;6996487;28;20040;-81
2021/06/16 18:57:46;;;;;;;8.70;4.15;;;;;;;;;;7008431;28;20039;-80
2021/06/16 19:01:08;;;;;;;6.97;4.05;;;;;;;;;;6996878;28;20044;-80
2021/06/16 19:08:12;;;;;;;10.98;4.07;;;;;;;;;;7019927;28;20106;-80
2021/06/16 19:11:32;;;;;;;10.82;4.88;;;;;;;;;;7017174;28;20043;-81
2021/06/16 19:14:52;;;;;;;14.25;4.15;;;;;;;;;;7008728;28;20134;-80
2021/06/16 19:18:13;;;;;;;9.82;4.32;;;;;;;;;;7009736;28;20493;-80
2021/06/16 19:21:33;;;;;;;12.95;4.18;;;;;;;;;;7010163;28;20190;-80
2021/06/16 19:24:54;;;;;;;8.25;3.92;;;;;;;;;;6996340;28;20062;-81
2021/06/16 19:28:14;;;;;;;8.52;4.18;;;;;;;;;;7001579;28;20611;-81
2021/06/16 19:31:35;;;;;;;5.93;4.07;;;;;;;;;;6995624;28;20090;-80
2021/06/16 19:34:56;;;;;;;16.75;4.70;;;;;;;;;;6995220;28;20049;-81
2021/06/16 19:38:17;;;;;;;13.18;4.80;;;;;;;;;;6995354;28;20377;-80
2021/06/16 19:41:38;;;;;;;9.70;4.18;;;;;;;;;;6995855;28;20481;-80
2021/06/16 19:44:58;;;;;;;12.55;4.32;;;;;;;;;;7000604;28;20431;-81
2021/06/16 19:48:19;;;;;;;7.88;4.40;;;;;;;;;;7009509;28;20516;-81
2021/06/16 19:51:41;;;;;;;8.00;4.57;;;;;;;;;;7000836;28;20102;-81
2021/06/16 19:55:02;;;;;;;8.90;4.80;;;;;;;;;;7001518;28;20071;-81
2021/06/16 19:58:22;;;;;;;8.70;4.35;;;;;;;;;;6998379;28;20444;-81
2021/06/16 20:01:43;;;;;;;8.25;4.30;;;;;;;;;;7016361;28;20044;-81
2021/06/16 20:05:05;;;;;;;8.35;4.78;;;;;;;;;;7017719;28;20094;-82
2021/06/16 20:08:25;;;;;;;8.35;4.72;;;;;;;;;;7020268;28;20472;-82
2021/06/16 20:11:46;;;;;;;10.45;5.18;;;;;;;;;;7008400;28;20474;-81
2021/06/16 20:15:07;;;;;;;12.40;5.63;;;;;;;;;;7014476;28;20067;-82
2021/06/16 20:18:27;;;;;;;13.85;5.22;;;;;;;;;;7026104;28;20542;-82